createdAt,value
2023-01-04T00:00:27.366Z,97398.38
2023-01-04T00:02:59.667Z,97398.38
2023-01-04T00:05:28.546Z,97386.72
2023-01-04T00:08:05.252Z,97391.69
2023-01-04T00:10:33.859Z,97392.53
2023-01-04T00:13:02.504Z,97389.13
2023-01-04T00:15:31.352Z,97388.28
2023-01-04T00:18:00.613Z,97379.78
2023-01-04T00:20:29.730Z,97382.22
2023-01-04T00:22:59.168Z,97381.38
2023-01-04T00:25:29.391Z,97378.81
2023-01-04T00:27:59.259Z,97375.41
2023-01-04T00:30:28.192Z,97372.06
2023-01-04T00:32:56.939Z,97375.44
2023-01-04T00:35:44.739Z,97366.22
2023-01-04T00:38:14.318Z,97362.38
2023-01-04T00:40:44.294Z,97371.91
2023-01-04T00:43:13.255Z,97366.22
2023-01-04T00:45:41.869Z,97366.34
2023-01-04T00:48:10.544Z,97359.78
2023-01-04T00:50:39.049Z,97331.59
2023-01-04T00:53:07.562Z,97364.81
2023-01-04T00:55:36.277Z,97363.13
2023-01-04T00:58:06.290Z,97369.06
2023-01-04T01:00:35.024Z,97369.06
2023-01-04T01:03:04.523Z,97358.16
2023-01-04T01:05:34.729Z,97355.69
2023-01-04T01:08:24.883Z,97352.31
2023-01-04T01:10:53.832Z,97364.97
2023-01-04T01:13:24.647Z,97361.69
2023-01-04T01:15:53.699Z,97360.06
2023-01-04T01:18:35.864Z,97365.16
2023-01-04T01:21:06.693Z,97362.63
2023-01-04T01:23:35.620Z,97366.88
2023-01-04T01:26:05.263Z,97368.63
2023-01-04T01:28:35.545Z,97378.75
2023-01-04T01:31:08.867Z,97374.56
2023-01-04T01:33:42.608Z,97378.78
2023-01-04T01:36:11.930Z,97385.53
2023-01-04T01:38:40.595Z,97378.88
2023-01-04T01:41:10.119Z,97374.69
2023-01-04T01:43:52.061Z,97375.66
2023-01-04T01:46:23.891Z,97373.28
2023-01-04T01:48:55.089Z,97372.41
2023-01-04T01:51:24.155Z,97371.56
2023-01-04T01:53:56.681Z,97369.91
2023-01-04T01:56:25.656Z,97367.38
2023-01-04T01:58:57.230Z,97367.41
2023-01-04T02:01:26.015Z,97364.03
2023-01-04T02:03:54.802Z,97355.63
2023-01-04T02:06:27.261Z,97327.34
2023-01-04T02:08:56.231Z,97347.91
2023-01-04T02:11:33.129Z,97351.25
2023-01-04T02:14:21.936Z,97349.53
2023-01-04T02:17:08.650Z,97345.31
2023-01-04T02:20:04.769Z,97340.28
2023-01-04T02:23:09.274Z,97342.81
2023-01-04T02:26:10.906Z,97338.56
2023-01-04T02:29:06.014Z,97339.47
2023-01-04T02:31:39.152Z,97339.50
2023-01-04T02:34:13.555Z,97338.78
2023-01-04T02:36:45.981Z,97331.31
2023-01-04T02:39:21.057Z,97342.31
2023-01-04T02:41:52.839Z,97344.00
2023-01-04T02:44:43.550Z,97345.59
2023-01-04T02:47:44.027Z,97343.88
2023-01-04T02:50:32.370Z,97333.66
2023-01-04T02:53:03.357Z,97340.25
2023-01-04T02:55:43.527Z,97340.22
2023-01-04T02:58:18.154Z,97301.91
2023-01-04T03:01:12.562Z,97333.44
2023-01-04T03:04:07.942Z,97331.91
2023-01-04T03:06:45.212Z,97325.97
2023-01-04T03:09:49.085Z,97315.91
2023-01-04T03:12:32.535Z,97320.22
2023-01-04T03:15:05.208Z,97310.25
2023-01-04T03:17:37.235Z,97306.25
2023-01-04T03:20:09.311Z,97305.53
2023-01-04T03:23:02.539Z,97298.91
2023-01-04T03:25:52.858Z,97295.56
2023-01-04T03:32:44.372Z,97289.69
2023-01-04T03:35:28.430Z,97293.97
2023-01-04T03:38:14.910Z,97295.69
2023-01-04T03:41:08.005Z,97302.41
2023-01-04T03:43:57.762Z,97288.97
2023-01-04T03:46:47.835Z,97276.41
2023-01-04T03:49:20.249Z,97278.19
2023-01-04T03:51:51.259Z,97279.91
2023-01-04T03:54:22.698Z,97276.56
2023-01-04T03:56:51.840Z,97279.09
2023-01-04T03:59:22.954Z,97273.25
2023-01-04T04:02:19.383Z,97275.00
2023-01-04T04:05:06.071Z,97277.59
2023-01-04T04:07:53.798Z,97264.13
2023-01-04T04:10:23.005Z,97256.56
2023-01-04T04:12:52.522Z,97267.53
2023-01-04T04:15:21.605Z,97270.13
2023-01-04T04:17:50.648Z,97266.00
2023-01-04T04:20:19.402Z,97275.31
2023-01-04T04:22:59.097Z,97265.25
2023-01-04T04:25:27.699Z,97262.72
2023-01-04T04:27:56.474Z,97269.41
2023-01-04T04:30:25.549Z,97270.22
2023-01-04T04:32:54.099Z,97269.38
2023-01-04T04:35:22.519Z,97267.69
2023-01-04T04:37:52.311Z,97255.94
2023-01-04T04:40:34.636Z,97262.56
2023-01-04T04:43:03.245Z,97264.19
2023-01-04T04:45:31.791Z,97254.91
2023-01-04T04:48:17.774Z,97254.84
2023-01-04T04:50:46.447Z,97249.91
2023-01-04T04:53:16.559Z,97255.00
2023-01-04T04:55:45.365Z,97255.94
2023-01-04T04:58:29.710Z,97249.28
2023-01-04T05:00:58.621Z,97251.94
2023-01-04T05:03:27.468Z,97249.50
2023-01-04T05:05:55.881Z,97245.34
2023-01-04T05:08:26.287Z,97245.44
2023-01-04T05:10:55.108Z,97249.66
2023-01-04T05:13:22.806Z,97247.94
2023-01-04T05:15:53.172Z,97241.16
2023-01-04T05:18:23.607Z,97229.34
2023-01-04T05:20:52.557Z,97240.25
2023-01-04T05:23:22.672Z,97236.88
2023-01-04T05:25:55.315Z,97236.88
2023-01-04T05:28:24.029Z,97243.56
2023-01-04T05:30:52.078Z,97248.56
2023-01-04T05:33:21.698Z,97248.53
2023-01-04T05:35:50.497Z,97242.59
2023-01-04T05:38:19.591Z,97239.22
2023-01-04T05:40:48.956Z,97245.97
2023-01-04T05:43:20.342Z,97239.28
2023-01-04T05:45:49.884Z,97244.25
2023-01-04T05:48:43.085Z,97236.69
2023-01-04T05:51:11.422Z,97238.34
2023-01-04T05:53:40.352Z,97240.75
2023-01-04T05:56:09.718Z,97234.06
2023-01-04T05:58:39.847Z,97230.69
2023-01-04T06:01:10.344Z,97229.00
2023-01-04T06:03:39.206Z,97229.81
2023-01-04T06:06:08.130Z,97234.06
2023-01-04T06:08:36.939Z,97225.69
2023-01-04T06:11:05.601Z,97229.13
2023-01-04T06:13:34.248Z,97228.28
2023-01-04T06:16:04.495Z,97224.19
2023-01-04T06:18:33.139Z,97224.22
2023-01-04T06:21:01.655Z,97225.94
2023-01-04T06:23:30.584Z,97216.78
2023-01-04T06:25:59.176Z,97216.84
2023-01-04T06:28:28.123Z,97215.13
2023-01-04T06:30:56.949Z,97204.16
2023-01-04T06:33:27.137Z,97215.06
2023-01-04T06:35:56.955Z,97218.31
2023-01-04T06:38:25.744Z,97222.44
2023-01-04T06:40:54.280Z,97214.88
2023-01-04T06:43:22.753Z,97208.09
2023-01-04T06:45:51.673Z,97202.22
2023-01-04T06:48:20.488Z,97202.28
2023-01-04T06:50:50.490Z,97205.69
2023-01-04T06:53:18.966Z,97197.25
2023-01-04T06:55:47.979Z,97199.69
2023-01-04T06:58:17.143Z,97200.50
2023-01-04T07:00:46.552Z,97197.09
2023-01-04T07:03:16.319Z,97195.38
2023-01-04T07:05:45.244Z,97194.47
2023-01-04T07:08:16.532Z,97191.94
2023-01-04T07:10:45.570Z,97188.63
2023-01-04T07:13:14.205Z,97188.63
2023-01-04T07:19:50.540Z,97182.56
2023-01-04T07:22:19.265Z,97175.75
2023-01-04T07:24:50.085Z,97175.72
2023-01-04T07:27:19.189Z,97184.91
2023-01-04T07:29:47.814Z,97178.94
2023-01-04T07:32:17.761Z,97182.16
2023-01-04T07:34:47.700Z,97185.41
2023-01-04T07:37:17.538Z,97176.00
2023-01-04T07:39:46.332Z,97177.56
2023-01-04T07:42:16.851Z,97177.38
2023-01-04T07:44:46.229Z,97179.59
2023-01-04T07:47:15.375Z,97182.66
2023-01-04T07:49:44.116Z,97175.19
2023-01-04T07:52:12.705Z,97168.97
2023-01-04T07:54:41.704Z,97161.97
2023-01-04T07:57:10.545Z,97151.69
2023-01-04T07:59:40.698Z,97148.44
2023-01-04T08:02:11.696Z,97144.31
2023-01-04T08:04:40.369Z,97154.41
2023-01-04T08:07:08.790Z,97141.03
2023-01-04T08:09:37.690Z,97151.47
2023-01-04T08:12:07.055Z,97149.56
2023-01-04T08:14:35.606Z,97151.69
2023-01-04T08:17:05.477Z,97144.50
2023-01-04T08:19:34.079Z,97146.16
2023-01-04T08:22:02.793Z,97144.78
2023-01-04T08:24:31.911Z,97131.50
2023-01-04T08:27:00.623Z,97138.25
2023-01-04T08:29:34.526Z,97135.13
2023-01-04T08:32:03.701Z,97132.44
2023-01-04T08:34:34.120Z,97125.56
2023-01-04T08:37:03.195Z,97121.19
2023-01-04T08:39:35.622Z,97125.31
2023-01-04T08:42:18.803Z,97130.09
2023-01-04T08:44:51.868Z,97127.84
2023-01-04T08:47:22.673Z,97116.41
2023-01-04T08:49:52.600Z,97111.44
2023-01-04T08:52:29.359Z,97093.69
2023-01-04T08:55:10.114Z,97108.69
2023-01-04T08:57:46.505Z,97097.81
2023-01-04T09:00:17.399Z,97080.91
2023-01-04T09:02:46.406Z,97080.94
2023-01-04T09:05:22.337Z,97084.09
2023-01-04T09:07:51.774Z,97088.53
2023-01-04T09:10:20.938Z,97088.31
2023-01-04T09:12:49.478Z,97093.38
2023-01-04T09:15:18.732Z,97088.47
2023-01-04T09:18:20.722Z,97090.81
2023-01-04T09:20:38.636Z,97088.63
2023-01-04T09:23:07.072Z,97081.88
2023-01-04T09:25:35.769Z,97077.84
2023-01-04T09:28:03.993Z,97068.69
2023-01-04T09:30:37.246Z,97063.09
2023-01-04T09:33:06.060Z,97078.19
2023-01-04T09:35:35.592Z,97086.34
2023-01-04T09:38:05.800Z,97064.53
2023-01-04T09:40:41.864Z,97059.28
2023-01-04T09:43:20.187Z,97049.88
2023-01-04T09:45:54.305Z,97048.22
2023-01-04T09:51:16.560Z,97049.88
2023-01-04T09:53:48.355Z,97029.16
2023-01-04T09:56:23.489Z,97031.97
2023-01-04T09:58:52.886Z,97028.75
2023-01-04T10:01:24.713Z,97026.38
2023-01-04T10:04:00.881Z,97023.66
2023-01-04T10:06:29.524Z,97005.47
2023-01-04T10:09:04.432Z,97015.31
2023-01-04T10:11:47.491Z,97013.94
2023-01-04T10:14:27.548Z,97005.66
2023-01-04T10:17:17.758Z,96999.09
2023-01-04T10:21:18.782Z,96983.69
2023-01-04T10:22:57.209Z,96983.41
2023-01-04T10:25:31.573Z,96982.78
2023-01-04T10:28:12.890Z,96983.56
2023-01-04T10:31:55.239Z,96981.22
2023-01-04T10:34:26.477Z,96961.41
2023-01-04T10:36:59.024Z,96968.47
2023-01-04T10:39:32.967Z,96938.63
2023-01-04T10:42:12.532Z,96961.97
2023-01-04T10:44:48.520Z,96951.81
2023-01-04T10:47:20.969Z,96959.13
2023-01-04T10:49:53.916Z,96941.94
2023-01-04T10:52:25.177Z,96933.38
2023-01-04T10:54:56.775Z,96937.66
2023-01-04T10:57:28.771Z,96938.63
2023-01-04T11:00:04.363Z,96934.38
2023-01-04T11:02:38.032Z,96938.50
2023-01-04T11:05:13.595Z,96931.84
2023-01-04T11:07:43.668Z,96928.84
2023-01-04T11:10:15.944Z,96917.38
2023-01-04T11:12:48.831Z,96910.56
2023-01-04T11:15:17.742Z,96921.31
2023-01-04T11:17:49.469Z,96902.38
2023-01-04T11:20:18.177Z,96912.66
2023-01-04T11:22:54.495Z,96907.84
2023-01-04T11:25:35.023Z,96900.59
2023-01-04T11:28:12.353Z,96895.63
2023-01-04T11:30:53.958Z,96903.03
2023-01-04T11:33:24.001Z,96893.34
2023-01-04T11:35:53.662Z,96896.59
2023-01-04T11:38:31.635Z,96906.16
2023-01-04T11:41:02.625Z,96897.00
2023-01-04T11:43:33.627Z,96813.28
2023-01-04T11:46:04.969Z,96878.38
2023-01-04T11:48:39.925Z,96879.16
2023-01-04T11:51:19.006Z,96865.31
2023-01-04T11:54:21.330Z,96870.75
2023-01-04T11:57:02.805Z,96862.78
2023-01-04T11:59:36.238Z,96859.47
2023-01-04T12:05:26.207Z,96825.06
2023-01-04T12:07:58.475Z,96845.91
2023-01-04T12:10:28.883Z,96813.41
2023-01-04T12:12:58.884Z,96828.66
2023-01-04T12:15:39.673Z,96832.78
2023-01-04T12:18:12.480Z,96840.59
2023-01-04T12:20:41.684Z,96836.03
2023-01-04T12:23:10.878Z,96836.06
2023-01-04T12:25:42.086Z,96809.91
2023-01-04T12:28:42.800Z,96840.28
2023-01-04T12:31:31.864Z,96836.25
2023-01-04T12:34:02.093Z,96812.31
2023-01-04T12:36:58.649Z,96811.81
2023-01-04T12:39:43.999Z,96799.31
2023-01-04T12:42:15.966Z,96796.13
2023-01-04T12:45:05.386Z,96778.59
2023-01-04T12:48:03.378Z,96773.00
2023-01-04T12:50:32.995Z,96771.06
2023-01-04T12:53:30.063Z,96760.34
2023-01-04T12:55:56.195Z,96766.44
2023-01-04T13:02:18.577Z,96757.81
2023-01-04T13:04:49.567Z,96758.44
2023-01-04T13:07:22.065Z,96752.91
2023-01-04T13:09:56.653Z,96743.88
2023-01-04T13:12:45.199Z,96747.78
2023-01-04T13:15:22.044Z,96743.56
2023-01-04T13:17:50.697Z,96734.63
2023-01-04T13:20:23.070Z,96729.00
2023-01-04T13:22:54.789Z,96741.53
2023-01-04T13:25:26.690Z,96735.69
2023-01-04T13:28:00.475Z,96724.94
2023-01-04T13:30:35.519Z,96739.06
2023-01-04T13:33:28.572Z,96740.41
2023-01-04T13:36:05.066Z,96724.81
2023-01-04T13:38:35.423Z,96732.50
2023-01-04T13:41:05.940Z,96725.09
2023-01-04T13:43:52.860Z,96723.69
2023-01-04T13:46:22.309Z,96720.28
2023-01-04T13:48:53.738Z,96726.84
2023-01-04T13:51:36.276Z,96720.81
2023-01-04T13:54:07.355Z,96728.19
2023-01-04T13:56:37.011Z,96731.47
2023-01-04T13:59:05.446Z,96736.28
2023-01-04T14:01:41.947Z,96732.38
2023-01-04T14:04:34.182Z,96727.56
2023-01-04T14:07:04.333Z,96731.13
2023-01-04T14:09:44.638Z,96728.56
2023-01-04T14:12:18.407Z,96719.25
2023-01-04T14:14:51.534Z,96722.72
2023-01-04T14:17:33.785Z,96703.63
2023-01-04T14:20:02.754Z,96716.22
2023-01-04T14:22:44.265Z,96717.75
2023-01-04T14:25:45.229Z,96713.31
2023-01-04T14:28:33.501Z,96720.66
2023-01-04T14:31:33.827Z,96721.44
2023-01-04T14:34:07.455Z,96737.47
2023-01-04T14:36:37.525Z,96723.03
2023-01-04T14:39:20.688Z,96717.41
2023-01-04T14:42:00.083Z,96719.75
2023-01-04T14:44:33.840Z,96720.97
2023-01-04T14:47:06.652Z,96714.41
2023-01-04T14:49:35.709Z,96725.63
2023-01-04T14:52:10.321Z,96727.66
2023-01-04T14:54:40.564Z,96728.03
2023-01-04T14:57:11.368Z,96717.56
2023-01-04T14:59:40.018Z,96706.59
2023-01-04T15:02:34.240Z,96722.84
2023-01-04T15:05:02.748Z,96703.66
2023-01-04T15:07:35.771Z,96717.00
2023-01-04T15:10:06.886Z,96711.63
2023-01-04T15:12:35.775Z,96723.66
2023-01-04T15:15:05.347Z,96708.88
2023-01-04T15:17:33.882Z,96714.38
2023-01-04T15:20:02.360Z,96713.81
2023-01-04T15:22:31.051Z,96696.50
2023-01-04T15:25:01.635Z,96691.19
2023-01-04T15:27:38.366Z,96707.16
2023-01-04T15:30:11.791Z,96710.63
2023-01-04T15:32:40.730Z,96704.34
2023-01-04T15:35:09.712Z,96688.81
2023-01-04T15:37:38.175Z,96677.03
2023-01-04T15:40:08.102Z,96671.03
2023-01-04T15:42:56.217Z,96670.66
2023-01-04T15:45:24.532Z,96668.84
2023-01-04T15:47:53.404Z,96673.94
2023-01-04T15:50:22.457Z,96681.31
2023-01-04T15:52:50.749Z,96683.78
2023-01-04T15:55:19.409Z,96672.91
2023-01-04T15:57:49.534Z,96663.78
2023-01-04T16:00:22.181Z,96659.47
2023-01-04T16:02:50.994Z,96659.06
2023-01-04T16:05:21.090Z,96659.22
2023-01-04T16:07:49.846Z,96644.97
2023-01-04T16:10:19.269Z,96640.16
2023-01-04T16:12:56.457Z,96644.34
2023-01-04T16:15:34.860Z,96629.34
2023-01-04T16:18:03.470Z,96621.88
2023-01-04T16:20:32.510Z,96632.63
2023-01-04T16:23:01.052Z,96625.59
2023-01-04T16:25:46.864Z,96625.47
2023-01-04T16:28:17.352Z,96616.53
2023-01-04T16:30:47.655Z,96608.25
2023-01-04T16:33:16.392Z,96616.34
2023-01-04T16:35:45.132Z,96616.25
2023-01-04T16:38:13.569Z,96621.28
2023-01-04T16:40:42.188Z,96624.28
2023-01-04T16:43:11.023Z,96620.53
2023-01-04T16:45:44.830Z,96614.22
2023-01-04T16:48:18.279Z,96614.13
2023-01-04T16:50:47.078Z,96596.50
2023-01-04T16:53:15.607Z,96602.25
2023-01-04T16:55:44.264Z,96601.53
2023-01-04T16:58:12.807Z,96603.38
2023-01-04T17:00:42.836Z,96602.56
2023-01-04T17:03:11.331Z,96599.44
2023-01-04T17:05:41.164Z,96588.72
2023-01-04T17:08:35.185Z,96580.72
2023-01-04T17:14:33.869Z,96589.03
2023-01-04T17:17:06.599Z,96584.13
2023-01-04T17:19:35.615Z,96578.69
2023-01-04T17:22:04.179Z,96590.59
2023-01-04T17:24:33.088Z,96580.34
2023-01-04T17:27:03.063Z,96575.97
2023-01-04T17:29:31.854Z,96557.66
2023-01-04T17:32:00.770Z,96557.97
2023-01-04T17:34:31.779Z,96568.59
2023-01-04T17:37:02.910Z,96541.09
2023-01-04T17:39:33.108Z,96550.59
2023-01-04T17:42:01.787Z,96554.47
2023-01-04T17:44:30.955Z,96529.63
2023-01-04T17:47:00.133Z,96535.94
2023-01-04T17:49:32.383Z,96514.59
2023-01-04T17:52:01.454Z,96521.94
2023-01-04T17:54:31.688Z,96526.97
2023-01-04T17:57:00.566Z,96524.06
2023-01-04T17:59:29.709Z,96511.22
2023-01-04T18:01:58.783Z,96511.78
2023-01-04T18:04:31.165Z,96504.75
2023-01-04T18:07:02.153Z,96517.53
2023-01-04T18:09:30.897Z,96511.50
2023-01-04T18:11:59.737Z,96511.59
2023-01-04T18:14:28.990Z,96522.47
2023-01-04T18:17:01.555Z,96506.63
2023-01-04T18:19:31.854Z,96494.72
2023-01-04T18:22:02.095Z,96504.44
2023-01-04T18:24:36.774Z,96490.53
2023-01-04T18:27:32.491Z,96504.06
2023-01-04T18:30:01.143Z,96492.56
2023-01-04T18:32:29.923Z,96494.00
2023-01-04T18:34:58.444Z,96483.75
2023-01-04T18:37:28.675Z,96479.59
2023-01-04T18:39:57.079Z,96482.97
2023-01-04T18:42:26.140Z,96479.25
2023-01-04T18:44:55.053Z,96486.81
2023-01-04T18:47:26.871Z,96475.19
2023-01-04T18:49:55.818Z,96472.53
2023-01-04T18:52:24.649Z,96472.69
2023-01-04T18:54:56.818Z,96469.84
2023-01-04T18:57:27.769Z,96458.22
2023-01-04T18:59:56.821Z,96478.78
2023-01-04T19:02:25.818Z,96479.09
2023-01-04T19:04:54.580Z,96451.53
2023-01-04T19:07:32.316Z,96459.19
2023-01-04T19:10:02.519Z,96455.03
2023-01-04T19:12:30.989Z,96451.72
2023-01-04T19:15:00.197Z,96446.22
2023-01-04T19:17:31.662Z,96454.41
2023-01-04T19:20:00.313Z,96463.41
2023-01-04T19:22:28.848Z,96429.16
2023-01-04T19:24:57.688Z,96463.44
2023-01-04T19:27:27.844Z,96445.19
2023-01-04T19:29:56.745Z,96464.44
2023-01-04T19:32:29.972Z,96454.19
2023-01-04T19:35:01.971Z,96453.59
2023-01-04T19:37:30.985Z,96438.94
2023-01-04T19:39:59.960Z,96444.19
2023-01-04T19:42:32.456Z,96453.59
2023-01-04T19:45:01.197Z,96438.00
2023-01-04T19:47:31.230Z,96427.75
2023-01-04T19:50:00.268Z,96435.25
2023-01-04T19:52:31.071Z,96419.28
2023-01-04T19:54:59.723Z,96391.53
2023-01-04T19:57:28.778Z,96402.13
2023-01-04T20:00:01.982Z,96390.97
2023-01-04T20:02:31.114Z,96416.56
2023-01-04T20:04:59.833Z,96415.19
2023-01-04T20:07:31.082Z,96403.31
2023-01-04T20:10:00.049Z,96402.72
2023-01-04T20:12:28.814Z,96419.31
2023-01-04T20:14:57.693Z,96392.94
2023-01-04T20:17:31.996Z,96409.09
2023-01-04T20:20:00.886Z,96399.34
2023-01-04T20:22:32.550Z,96381.63
2023-01-04T20:25:01.331Z,96376.56
2023-01-04T20:27:30.494Z,96383.66
2023-01-04T20:30:01.295Z,96383.06
2023-01-04T20:32:33.395Z,96378.44
2023-01-04T20:35:01.981Z,96387.25
2023-01-04T20:37:30.779Z,96374.94
2023-01-04T20:39:59.095Z,96371.25
2023-01-04T20:42:45.302Z,96383.66
2023-01-04T20:45:14.008Z,96369.31
2023-01-04T20:47:44.300Z,96360.03
2023-01-04T20:50:16.993Z,96360.41
2023-01-04T20:52:45.956Z,96343.78
2023-01-04T20:55:17.514Z,96343.88
2023-01-04T20:57:46.977Z,96366.06
2023-01-04T21:00:19.697Z,96355.31
2023-01-04T21:02:50.486Z,96359.53
2023-01-04T21:05:19.502Z,96320.00
2023-01-04T21:07:48.341Z,96349.00
2023-01-04T21:10:16.961Z,96351.94
2023-01-04T21:12:45.763Z,96353.78
2023-01-04T21:15:14.439Z,96339.84
2023-01-04T21:17:43.165Z,96330.84
2023-01-04T21:20:13.653Z,96359.72
2023-01-04T21:22:42.806Z,96346.09
2023-01-04T21:25:11.646Z,96337.78
2023-01-04T21:27:40.680Z,96329.63
2023-01-04T21:30:10.457Z,96318.88
2023-01-04T21:32:39.164Z,96329.50
2023-01-04T21:35:09.322Z,96325.44
2023-01-04T21:37:39.723Z,96336.97
2023-01-04T21:40:09.757Z,96317.75
2023-01-04T21:43:02.964Z,96326.75
2023-01-04T21:45:31.895Z,96331.75
2023-01-04T21:48:00.347Z,96333.94
2023-01-04T21:50:30.945Z,96323.69
2023-01-04T21:53:01.254Z,96312.38
2023-01-04T21:55:34.865Z,96303.75
2023-01-04T21:58:04.402Z,96313.66
2023-01-04T22:00:33.285Z,96314.59
2023-01-04T22:03:02.038Z,96326.44
2023-01-04T22:05:32.554Z,96303.50
2023-01-04T22:08:03.026Z,96319.44
2023-01-04T22:10:32.056Z,96309.09
2023-01-04T22:13:00.746Z,96300.81
2023-01-04T22:15:29.541Z,96303.59
2023-01-04T22:17:58.617Z,96298.50
2023-01-04T22:20:29.561Z,96316.19
2023-01-04T22:22:58.469Z,96296.00
2023-01-04T22:25:28.636Z,96304.63
2023-01-04T22:27:57.355Z,96299.50
2023-01-04T22:30:53.316Z,96297.81
2023-01-04T22:33:22.335Z,96298.63
2023-01-04T22:35:57.708Z,96294.81
2023-01-04T22:38:32.457Z,96297.50
2023-01-04T22:41:05.112Z,96279.94
2023-01-04T22:43:33.611Z,96272.03
2023-01-04T22:46:03.008Z,96252.59
2023-01-04T22:48:31.856Z,96271.69
2023-01-04T22:51:00.661Z,96277.50
2023-01-04T22:53:29.613Z,96260.63
2023-01-04T22:56:18.354Z,96276.56
2023-01-04T22:58:53.109Z,96238.72
2023-01-04T23:01:22.740Z,96249.47
2023-01-04T23:03:52.744Z,96253.63
2023-01-04T23:06:22.486Z,96251.31
2023-01-04T23:08:56.384Z,96238.63
2023-01-04T23:11:25.731Z,96237.56
2023-01-04T23:13:56.188Z,96239.31
2023-01-04T23:16:32.000Z,96233.13
2023-01-04T23:19:02.268Z,96224.28
2023-01-04T23:21:31.547Z,96225.41
2023-01-04T23:24:00.236Z,96222.16
2023-01-04T23:26:30.393Z,96223.69
2023-01-04T23:29:01.583Z,96225.25
2023-01-04T23:31:32.227Z,96210.59
2023-01-04T23:34:02.497Z,96215.72
2023-01-04T23:36:45.242Z,96205.59
2023-01-04T23:39:15.335Z,96202.56
2023-01-04T23:41:48.016Z,96205.00
2023-01-04T23:44:26.015Z,96181.38
2023-01-04T23:46:56.225Z,96163.59
2023-01-04T23:49:25.415Z,96161.84
2023-01-04T23:51:54.429Z,96175.47
2023-01-04T23:54:23.987Z,96161.75
2023-01-04T23:56:52.942Z,96169.78
2023-01-04T23:59:24.629Z,96154.66
